<?xml version="1.0" encoding="UTF-8" standalone="no" ?>
<gpx xmlns="http://www.topografix.com/GPX/1/1" xmlns:xsi="http://www.w3.org/2001/XMLSchema-instance" xsi:schemaLocation="http://www.topografix.com/GPX/1/1 http://www.topografix.com/GPX/1/1/gpx.xsd" version="1.1" creator="VisuGPX - https://www.visugpx.com">
  <metadata>
    <name>Raid 2012 étape 1</name>
    <desc><![CDATA[chemin du soleil 2012 étape 1]]></desc>
  </metadata>
  <trk>
    <name><![CDATA[1er jour Raid VTT2012]]></name>
    <trkseg>
      <trkpt lat="44.55737" lon="6.07805">
        <ele>735.5</ele>
        <time>2012-02-08T14:16:16Z</time>
      </trkpt>
      <trkpt lat="44.55818" lon="6.0792">
        <ele>739.3</ele>
        <time>2012-02-08T14:16:22Z</time>
      </trkpt>
      <trkpt lat="44.55908" lon="6.07987">
        <ele>740.5</ele>
        <time>2012-02-08T14:16:28Z</time>
      </trkpt>
      <trkpt lat="44.55979" lon="6.08033">
        <ele>742.4</ele>
        <time>2012-02-08T14:16:32Z</time>
      </trkpt>
      <trkpt lat="44.5604" lon="6.08087">
        <ele>743.4</ele>
        <time>2012-02-08T14:16:37Z</time>
      </trkpt>
      <trkpt lat="44.56092" lon="6.08196">
        <ele>740.5</ele>
        <time>2012-02-08T14:16:42Z</time>
      </trkpt>
      <trkpt lat="44.56134" lon="6.08226">
        <ele>740.4</ele>
        <time>2012-02-08T14:16:45Z</time>
      </trkpt>
      <trkpt lat="44.5614" lon="6.08141">
        <ele>742.6</ele>
        <time>2012-02-08T14:16:48Z</time>
      </trkpt>
      <trkpt lat="44.56104" lon="6.08041">
        <ele>744.8</ele>
        <time>2012-02-08T14:16:53Z</time>
      </trkpt>
      <trkpt lat="44.56126" lon="6.07968">
        <ele>745.9</ele>
        <time>2012-02-08T14:16:56Z</time>
      </trkpt>
      <trkpt lat="44.56203" lon="6.07909">
        <ele>747.9</ele>
        <time>2012-02-08T14:17:01Z</time>
      </trkpt>
      <trkpt lat="44.56205" lon="6.07777">
        <ele>747.3</ele>
        <time>2012-02-08T14:17:06Z</time>
      </trkpt>
      <trkpt lat="44.56309" lon="6.0771">
        <ele>754.4</ele>
        <time>2012-02-08T14:17:13Z</time>
      </trkpt>
      <trkpt lat="44.56456" lon="6.07669">
        <ele>770.4</ele>
        <time>2012-02-08T14:17:21Z</time>
      </trkpt>
      <trkpt lat="44.56567" lon="6.07605">
        <ele>789.3</ele>
        <time>2012-02-08T14:17:28Z</time>
      </trkpt>
      <trkpt lat="44.56663" lon="6.07473">
        <ele>816.6</ele>
        <time>2012-02-08T14:17:36Z</time>
      </trkpt>
      <trkpt lat="44.56662" lon="6.0724">
        <ele>838.4</ele>
        <time>2012-02-08T14:17:45Z</time>
      </trkpt>
      <trkpt lat="44.56687" lon="6.07064">
        <ele>846.6</ele>
        <time>2012-02-08T14:17:53Z</time>
      </trkpt>
      <trkpt lat="44.5673" lon="6.06909">
        <ele>846.4</ele>
        <time>2012-02-08T14:17:59Z</time>
      </trkpt>
      <trkpt lat="44.56695" lon="6.06689">
        <ele>851.3</ele>
        <time>2012-02-08T14:18:09Z</time>
      </trkpt>
      <trkpt lat="44.56631" lon="6.06362">
        <ele>859.2</ele>
        <time>2012-02-08T14:18:22Z</time>
      </trkpt>
      <trkpt lat="44.56737" lon="6.06151">
        <ele>870.3</ele>
        <time>2012-02-08T14:18:33Z</time>
      </trkpt>
      <trkpt lat="44.56784" lon="6.06003">
        <ele>881.4</ele>
        <time>2012-02-08T14:18:40Z</time>
      </trkpt>
      <trkpt lat="44.56791" lon="6.05799">
        <ele>895.4</ele>
        <time>2012-02-08T14:18:48Z</time>
      </trkpt>
      <trkpt lat="44.56822" lon="6.05722">
        <ele>903.6</ele>
        <time>2012-02-08T14:18:52Z</time>
      </trkpt>
      <trkpt lat="44.56979" lon="6.05548">
        <ele>925.2</ele>
        <time>2012-02-08T14:19:03Z</time>
      </trkpt>
      <trkpt lat="44.57137" lon="6.0546">
        <ele>949</ele>
        <time>2012-02-08T14:19:13Z</time>
      </trkpt>
      <trkpt lat="44.57164" lon="6.05349">
        <ele>970.9</ele>
        <time>2012-02-08T14:19:17Z</time>
      </trkpt>
      <trkpt lat="44.57233" lon="6.05262">
        <ele>992.2</ele>
        <time>2012-02-08T14:19:23Z</time>
      </trkpt>
      <trkpt lat="44.57316" lon="6.05043">
        <ele>1033.5</ele>
        <time>2012-02-08T14:19:33Z</time>
      </trkpt>
      <trkpt lat="44.57387" lon="6.05048">
        <ele>1038.6</ele>
        <time>2012-02-08T14:19:37Z</time>
      </trkpt>
      <trkpt lat="44.57458" lon="6.04881">
        <ele>1056.3</ele>
        <time>2012-02-08T14:19:45Z</time>
      </trkpt>
      <trkpt lat="44.57509" lon="6.05036">
        <ele>1039.2</ele>
        <time>2012-02-08T14:19:52Z</time>
      </trkpt>
      <trkpt lat="44.57668" lon="6.05086">
        <ele>1066.6</ele>
        <time>2012-02-08T14:20:01Z</time>
      </trkpt>
      <trkpt lat="44.57878" lon="6.05278">
        <ele>1079</ele>
        <time>2012-02-08T14:20:15Z</time>
      </trkpt>
      <trkpt lat="44.57979" lon="6.05377">
        <ele>1081.4</ele>
        <time>2012-02-08T14:20:22Z</time>
      </trkpt>
      <trkpt lat="44.58158" lon="6.05495">
        <ele>1094.2</ele>
        <time>2012-02-08T14:20:34Z</time>
      </trkpt>
      <trkpt lat="44.58172" lon="6.05383">
        <ele>1115.4</ele>
        <time>2012-02-08T14:20:38Z</time>
      </trkpt>
      <trkpt lat="44.58385" lon="6.05608">
        <ele>1144.5</ele>
        <time>2012-02-08T14:20:54Z</time>
      </trkpt>
      <trkpt lat="44.58524" lon="6.0569">
        <ele>1164.3</ele>
        <time>2012-02-08T14:21:02Z</time>
      </trkpt>
      <trkpt lat="44.58375" lon="6.05364">
        <ele>1184.9</ele>
        <time>2012-02-08T14:21:18Z</time>
      </trkpt>
      <trkpt lat="44.58463" lon="6.0539">
        <ele>1216.1</ele>
        <time>2012-02-08T14:21:23Z</time>
      </trkpt>
      <trkpt lat="44.58414" lon="6.0505">
        <ele>1270.9</ele>
        <time>2012-02-08T14:21:37Z</time>
      </trkpt>
      <trkpt lat="44.58629" lon="6.05104">
        <ele>1339.9</ele>
        <time>2012-02-08T14:21:50Z</time>
      </trkpt>
      <trkpt lat="44.588" lon="6.05194">
        <ele>1373.2</ele>
        <time>2012-02-08T14:22:00Z</time>
      </trkpt>
      <trkpt lat="44.58938" lon="6.05138">
        <ele>1401.8</ele>
        <time>2012-02-08T14:22:09Z</time>
      </trkpt>
      <trkpt lat="44.5901" lon="6.05241">
        <ele>1389.7</ele>
        <time>2012-02-08T14:22:14Z</time>
      </trkpt>
      <trkpt lat="44.5898" lon="6.05444">
        <ele>1339.7</ele>
        <time>2012-02-08T14:22:23Z</time>
      </trkpt>
      <trkpt lat="44.59288" lon="6.05682">
        <ele>1378.8</ele>
        <time>2012-02-08T14:22:43Z</time>
      </trkpt>
      <trkpt lat="44.59413" lon="6.0573">
        <ele>1379.1</ele>
        <time>2012-02-08T14:22:50Z</time>
      </trkpt>
      <trkpt lat="44.59519" lon="6.05816">
        <ele>1363.3</ele>
        <time>2012-02-08T14:22:57Z</time>
      </trkpt>
      <trkpt lat="44.5944" lon="6.05646">
        <ele>1414.5</ele>
        <time>2012-02-08T14:23:06Z</time>
      </trkpt>
      <trkpt lat="44.59286" lon="6.05602">
        <ele>1397.1</ele>
        <time>2012-02-08T14:23:15Z</time>
      </trkpt>
      <trkpt lat="44.59209" lon="6.05347">
        <ele>1422.4</ele>
        <time>2012-02-08T14:23:26Z</time>
      </trkpt>
      <trkpt lat="44.59227" lon="6.05236">
        <ele>1458.8</ele>
        <time>2012-02-08T14:23:31Z</time>
      </trkpt>
      <trkpt lat="44.59085" lon="6.04857">
        <ele>1525</ele>
        <time>2012-02-08T14:23:48Z</time>
      </trkpt>
      <trkpt lat="44.59142" lon="6.04822">
        <ele>1565.5</ele>
        <time>2012-02-08T14:23:52Z</time>
      </trkpt>
      <trkpt lat="44.59098" lon="6.0474">
        <ele>1576.9</ele>
        <time>2012-02-08T14:23:56Z</time>
      </trkpt>
      <trkpt lat="44.59169" lon="6.04738">
        <ele>1609.7</ele>
        <time>2012-02-08T14:24:00Z</time>
      </trkpt>
      <trkpt lat="44.59143" lon="6.04525">
        <ele>1654.8</ele>
        <time>2012-02-08T14:24:09Z</time>
      </trkpt>
      <trkpt lat="44.5913" lon="6.04353">
        <ele>1675.5</ele>
        <time>2012-02-08T14:24:16Z</time>
      </trkpt>
      <trkpt lat="44.59185" lon="6.04106">
        <ele>1666</ele>
        <time>2012-02-08T14:24:26Z</time>
      </trkpt>
      <trkpt lat="44.59043" lon="6.03998">
        <ele>1658.4</ele>
        <time>2012-02-08T14:24:35Z</time>
      </trkpt>
      <trkpt lat="44.58914" lon="6.03903">
        <ele>1634.3</ele>
        <time>2012-02-08T14:24:44Z</time>
      </trkpt>
      <trkpt lat="44.5882" lon="6.03917">
        <ele>1627.6</ele>
        <time>2012-02-08T14:24:49Z</time>
      </trkpt>
      <trkpt lat="44.58768" lon="6.04039">
        <ele>1643.8</ele>
        <time>2012-02-08T14:24:55Z</time>
      </trkpt>
      <trkpt lat="44.58548" lon="6.04005">
        <ele>1638.2</ele>
        <time>2012-02-08T14:25:08Z</time>
      </trkpt>
      <trkpt lat="44.58455" lon="6.03959">
        <ele>1642.3</ele>
        <time>2012-02-08T14:25:13Z</time>
      </trkpt>
      <trkpt lat="44.5855" lon="6.0353">
        <ele>1621.5</ele>
        <time>2012-02-08T14:25:32Z</time>
      </trkpt>
      <trkpt lat="44.58582" lon="6.03137">
        <ele>1599.5</ele>
        <time>2012-02-08T14:25:48Z</time>
      </trkpt>
      <trkpt lat="44.58614" lon="6.02756">
        <ele>1567</ele>
        <time>2012-02-08T14:26:03Z</time>
      </trkpt>
      <trkpt lat="44.58551" lon="6.02376">
        <ele>1511.9</ele>
        <time>2012-02-08T14:26:19Z</time>
      </trkpt>
      <trkpt lat="44.5843" lon="6.02204">
        <ele>1503.4</ele>
        <time>2012-02-08T14:26:29Z</time>
      </trkpt>
      <trkpt lat="44.58283" lon="6.02069">
        <ele>1506.1</ele>
        <time>2012-02-08T14:26:39Z</time>
      </trkpt>
      <trkpt lat="44.58116" lon="6.0186">
        <ele>1505.8</ele>
        <time>2012-02-08T14:26:52Z</time>
      </trkpt>
      <trkpt lat="44.57929" lon="6.01808">
        <ele>1490.8</ele>
        <time>2012-02-08T14:27:03Z</time>
      </trkpt>
      <trkpt lat="44.57657" lon="6.01777">
        <ele>1538.3</ele>
        <time>2012-02-08T14:27:18Z</time>
      </trkpt>
      <trkpt lat="44.5782" lon="6.01709">
        <ele>1474.4</ele>
        <time>2012-02-08T14:27:28Z</time>
      </trkpt>
      <trkpt lat="44.57927" lon="6.01446">
        <ele>1376</ele>
        <time>2012-02-08T14:27:40Z</time>
      </trkpt>
      <trkpt lat="44.58001" lon="6.01371">
        <ele>1341.1</ele>
        <time>2012-02-08T14:27:46Z</time>
      </trkpt>
      <trkpt lat="44.5808" lon="6.01238">
        <ele>1323.7</ele>
        <time>2012-02-08T14:27:53Z</time>
      </trkpt>
      <trkpt lat="44.58268" lon="6.01264">
        <ele>1284.7</ele>
        <time>2012-02-08T14:28:03Z</time>
      </trkpt>
      <trkpt lat="44.58472" lon="6.01211">
        <ele>1254.9</ele>
        <time>2012-02-08T14:28:15Z</time>
      </trkpt>
      <trkpt lat="44.58553" lon="6.01065">
        <ele>1246.1</ele>
        <time>2012-02-08T14:28:23Z</time>
      </trkpt>
      <trkpt lat="44.58522" lon="6.00707">
        <ele>1252.2</ele>
        <time>2012-02-08T14:28:37Z</time>
      </trkpt>
      <trkpt lat="44.58524" lon="6.00516">
        <ele>1208.7</ele>
        <time>2012-02-08T14:28:45Z</time>
      </trkpt>
      <trkpt lat="44.58394" lon="6.00382">
        <ele>1197.5</ele>
        <time>2012-02-08T14:28:54Z</time>
      </trkpt>
      <trkpt lat="44.58365" lon="6.00348">
        <ele>1186.7</ele>
        <time>2012-02-08T14:28:57Z</time>
      </trkpt>
      <trkpt lat="44.58286" lon="6.00345">
        <ele>1198.8</ele>
        <time>2012-02-08T14:29:01Z</time>
      </trkpt>
      <trkpt lat="44.58208" lon="6.00214">
        <ele>1171.5</ele>
        <time>2012-02-08T14:29:08Z</time>
      </trkpt>
      <trkpt lat="44.58302" lon="6.00151">
        <ele>1136</ele>
        <time>2012-02-08T14:29:14Z</time>
      </trkpt>
      <trkpt lat="44.58342" lon="6.00067">
        <ele>1103.1</ele>
        <time>2012-02-08T14:29:18Z</time>
      </trkpt>
      <trkpt lat="44.58411" lon="6.00007">
        <ele>1086.4</ele>
        <time>2012-02-08T14:29:23Z</time>
      </trkpt>
      <trkpt lat="44.58378" lon="5.99949">
        <ele>1055.9</ele>
        <time>2012-02-08T14:29:26Z</time>
      </trkpt>
      <trkpt lat="44.58386" lon="5.99891">
        <ele>1037.1</ele>
        <time>2012-02-08T14:29:28Z</time>
      </trkpt>
      <trkpt lat="44.58461" lon="5.99879">
        <ele>1028.5</ele>
        <time>2012-02-08T14:29:33Z</time>
      </trkpt>
      <trkpt lat="44.58472" lon="5.99789">
        <ele>1017.3</ele>
        <time>2012-02-08T14:29:36Z</time>
      </trkpt>
      <trkpt lat="44.58429" lon="5.9962">
        <ele>1026.4</ele>
        <time>2012-02-08T14:29:44Z</time>
      </trkpt>
      <trkpt lat="44.58341" lon="5.99553">
        <ele>1016.4</ele>
        <time>2012-02-08T14:29:49Z</time>
      </trkpt>
      <trkpt lat="44.58327" lon="5.99361">
        <ele>1035.4</ele>
        <time>2012-02-08T14:29:57Z</time>
      </trkpt>
      <trkpt lat="44.58305" lon="5.99266">
        <ele>1047.2</ele>
        <time>2012-02-08T14:30:01Z</time>
      </trkpt>
      <trkpt lat="44.58267" lon="5.99132">
        <ele>1070.1</ele>
        <time>2012-02-08T14:30:07Z</time>
      </trkpt>
      <trkpt lat="44.5823" lon="5.9899">
        <ele>1091.1</ele>
        <time>2012-02-08T14:30:13Z</time>
      </trkpt>
      <trkpt lat="44.58204" lon="5.98796">
        <ele>1104.3</ele>
        <time>2012-02-08T14:30:21Z</time>
      </trkpt>
      <trkpt lat="44.5818" lon="5.98754">
        <ele>1107.8</ele>
        <time>2012-02-08T14:30:23Z</time>
      </trkpt>
      <trkpt lat="44.58133" lon="5.98729">
        <ele>1111.9</ele>
        <time>2012-02-08T14:30:26Z</time>
      </trkpt>
      <trkpt lat="44.58128" lon="5.98651">
        <ele>1127.8</ele>
        <time>2012-02-08T14:30:30Z</time>
      </trkpt>
      <trkpt lat="44.58064" lon="5.98666">
        <ele>1120.7</ele>
        <time>2012-02-08T14:30:33Z</time>
      </trkpt>
      <trkpt lat="44.58085" lon="5.98568">
        <ele>1136.7</ele>
        <time>2012-02-08T14:30:37Z</time>
      </trkpt>
      <trkpt lat="44.58001" lon="5.9837">
        <ele>1153.2</ele>
        <time>2012-02-08T14:30:47Z</time>
      </trkpt>
      <trkpt lat="44.57904" lon="5.98133">
        <ele>1155.2</ele>
        <time>2012-02-08T14:30:58Z</time>
      </trkpt>
      <trkpt lat="44.57945" lon="5.98004">
        <ele>1158.7</ele>
        <time>2012-02-08T14:31:04Z</time>
      </trkpt>
      <trkpt lat="44.57997" lon="5.97881">
        <ele>1165</ele>
        <time>2012-02-08T14:31:09Z</time>
      </trkpt>
      <trkpt lat="44.58011" lon="5.97687">
        <ele>1166</ele>
        <time>2012-02-08T14:31:17Z</time>
      </trkpt>
      <trkpt lat="44.58019" lon="5.97384">
        <ele>1164.3</ele>
        <time>2012-02-08T14:31:30Z</time>
      </trkpt>
      <trkpt lat="44.57902" lon="5.97028">
        <ele>1153.7</ele>
        <time>2012-02-08T14:31:46Z</time>
      </trkpt>
      <trkpt lat="44.57908" lon="5.96733">
        <ele>1144.5</ele>
        <time>2012-02-08T14:31:58Z</time>
      </trkpt>
      <trkpt lat="44.57698" lon="5.96358">
        <ele>1122.4</ele>
        <time>2012-02-08T14:32:17Z</time>
      </trkpt>
      <trkpt lat="44.57733" lon="5.96234">
        <ele>1128.7</ele>
        <time>2012-02-08T14:32:23Z</time>
      </trkpt>
      <trkpt lat="44.57667" lon="5.96142">
        <ele>1119.9</ele>
        <time>2012-02-08T14:32:28Z</time>
      </trkpt>
      <trkpt lat="44.57736" lon="5.95966">
        <ele>1132.7</ele>
        <time>2012-02-08T14:32:36Z</time>
      </trkpt>
      <trkpt lat="44.57619" lon="5.95908">
        <ele>1133.4</ele>
        <time>2012-02-08T14:32:43Z</time>
      </trkpt>
      <trkpt lat="44.57443" lon="5.9602">
        <ele>1122</ele>
        <time>2012-02-08T14:32:54Z</time>
      </trkpt>
      <trkpt lat="44.57243" lon="5.95972">
        <ele>1102.5</ele>
        <time>2012-02-08T14:33:06Z</time>
      </trkpt>
      <trkpt lat="44.57211" lon="5.95908">
        <ele>1090.8</ele>
        <time>2012-02-08T14:33:09Z</time>
      </trkpt>
      <trkpt lat="44.57249" lon="5.95745">
        <ele>1091.3</ele>
        <time>2012-02-08T14:33:16Z</time>
      </trkpt>
      <trkpt lat="44.57139" lon="5.95491">
        <ele>1073.6</ele>
        <time>2012-02-08T14:33:28Z</time>
      </trkpt>
      <trkpt lat="44.57103" lon="5.95304">
        <ele>1059.1</ele>
        <time>2012-02-08T14:33:36Z</time>
      </trkpt>
      <trkpt lat="44.57019" lon="5.95113">
        <ele>1047.5</ele>
        <time>2012-02-08T14:33:45Z</time>
      </trkpt>
      <trkpt lat="44.56935" lon="5.94966">
        <ele>1034.3</ele>
        <time>2012-02-08T14:33:53Z</time>
      </trkpt>
      <trkpt lat="44.57023" lon="5.94821">
        <ele>1053.1</ele>
        <time>2012-02-08T14:34:01Z</time>
      </trkpt>
      <trkpt lat="44.57101" lon="5.94893">
        <ele>1077</ele>
        <time>2012-02-08T14:34:06Z</time>
      </trkpt>
      <trkpt lat="44.5711" lon="5.9468">
        <ele>1094.9</ele>
        <time>2012-02-08T14:34:15Z</time>
      </trkpt>
      <trkpt lat="44.57076" lon="5.94549">
        <ele>1095.9</ele>
        <time>2012-02-08T14:34:20Z</time>
      </trkpt>
      <trkpt lat="44.57037" lon="5.94316">
        <ele>1110.4</ele>
        <time>2012-02-08T14:34:30Z</time>
      </trkpt>
      <trkpt lat="44.57065" lon="5.9394">
        <ele>1110.3</ele>
        <time>2012-02-08T14:34:45Z</time>
      </trkpt>
      <trkpt lat="44.5729" lon="5.93868">
        <ele>1178.7</ele>
        <time>2012-02-08T14:34:59Z</time>
      </trkpt>
      <trkpt lat="44.57234" lon="5.93763">
        <ele>1166.1</ele>
        <time>2012-02-08T14:35:04Z</time>
      </trkpt>
      <trkpt lat="44.57306" lon="5.93537">
        <ele>1189.5</ele>
        <time>2012-02-08T14:35:14Z</time>
      </trkpt>
      <trkpt lat="44.57363" lon="5.93278">
        <ele>1201.8</ele>
        <time>2012-02-08T14:35:25Z</time>
      </trkpt>
      <trkpt lat="44.57423" lon="5.93263">
        <ele>1210</ele>
        <time>2012-02-08T14:35:29Z</time>
      </trkpt>
      <trkpt lat="44.57439" lon="5.93414">
        <ele>1233.5</ele>
        <time>2012-02-08T14:35:35Z</time>
      </trkpt>
      <trkpt lat="44.57414" lon="5.93522">
        <ele>1226.9</ele>
        <time>2012-02-08T14:35:39Z</time>
      </trkpt>
      <trkpt lat="44.57473" lon="5.9355">
        <ele>1243.6</ele>
        <time>2012-02-08T14:35:43Z</time>
      </trkpt>
      <trkpt lat="44.57531" lon="5.93535">
        <ele>1250.9</ele>
        <time>2012-02-08T14:35:46Z</time>
      </trkpt>
      <trkpt lat="44.57554" lon="5.93507">
        <ele>1250.3</ele>
        <time>2012-02-08T14:35:48Z</time>
      </trkpt>
      <trkpt lat="44.57615" lon="5.93527">
        <ele>1254.2</ele>
        <time>2012-02-08T14:35:52Z</time>
      </trkpt>
      <trkpt lat="44.57516" lon="5.93642">
        <ele>1259</ele>
        <time>2012-02-08T14:35:59Z</time>
      </trkpt>
      <trkpt lat="44.57714" lon="5.93625">
        <ele>1271.4</ele>
        <time>2012-02-08T14:36:10Z</time>
      </trkpt>
      <trkpt lat="44.5779" lon="5.93635">
        <ele>1281</ele>
        <time>2012-02-08T14:36:15Z</time>
      </trkpt>
      <trkpt lat="44.57861" lon="5.93468">
        <ele>1266.2</ele>
        <time>2012-02-08T14:36:23Z</time>
      </trkpt>
      <trkpt lat="44.57876" lon="5.93413">
        <ele>1257.7</ele>
        <time>2012-02-08T14:36:25Z</time>
      </trkpt>
      <trkpt lat="44.57968" lon="5.93354">
        <ele>1272.8</ele>
        <time>2012-02-08T14:36:31Z</time>
      </trkpt>
      <trkpt lat="44.58037" lon="5.93415">
        <ele>1304.4</ele>
        <time>2012-02-08T14:36:35Z</time>
      </trkpt>
      <trkpt lat="44.58188" lon="5.93409">
        <ele>1295.1</ele>
        <time>2012-02-08T14:36:44Z</time>
      </trkpt>
      <trkpt lat="44.58263" lon="5.93405">
        <ele>1297</ele>
        <time>2012-02-08T14:36:48Z</time>
      </trkpt>
      <trkpt lat="44.58403" lon="5.9335">
        <ele>1286.1</ele>
        <time>2012-02-08T14:36:57Z</time>
      </trkpt>
      <trkpt lat="44.58479" lon="5.9343">
        <ele>1315.7</ele>
        <time>2012-02-08T14:37:02Z</time>
      </trkpt>
      <trkpt lat="44.58566" lon="5.93457">
        <ele>1304.9</ele>
        <time>2012-02-08T14:37:07Z</time>
      </trkpt>
      <trkpt lat="44.58679" lon="5.934">
        <ele>1284.9</ele>
        <time>2012-02-08T14:37:14Z</time>
      </trkpt>
      <trkpt lat="44.58594" lon="5.93378">
        <ele>1291.3</ele>
        <time>2012-02-08T14:37:19Z</time>
      </trkpt>
      <trkpt lat="44.5855" lon="5.93352">
        <ele>1293.1</ele>
        <time>2012-02-08T14:37:22Z</time>
      </trkpt>
      <trkpt lat="44.5864" lon="5.93301">
        <ele>1267.4</ele>
        <time>2012-02-08T14:37:27Z</time>
      </trkpt>
      <trkpt lat="44.58563" lon="5.93197">
        <ele>1240</ele>
        <time>2012-02-08T14:37:33Z</time>
      </trkpt>
      <trkpt lat="44.58689" lon="5.9321">
        <ele>1237.8</ele>
        <time>2012-02-08T14:37:41Z</time>
      </trkpt>
      <trkpt lat="44.58796" lon="5.93271">
        <ele>1226.9</ele>
        <time>2012-02-08T14:37:47Z</time>
      </trkpt>
      <trkpt lat="44.58721" lon="5.93191">
        <ele>1227.2</ele>
        <time>2012-02-08T14:37:53Z</time>
      </trkpt>
      <trkpt lat="44.58713" lon="5.93118">
        <ele>1207.2</ele>
        <time>2012-02-08T14:37:56Z</time>
      </trkpt>
      <trkpt lat="44.58787" lon="5.93139">
        <ele>1209.4</ele>
        <time>2012-02-08T14:38:00Z</time>
      </trkpt>
      <trkpt lat="44.58812" lon="5.93106">
        <ele>1215.6</ele>
        <time>2012-02-08T14:38:02Z</time>
      </trkpt>
      <trkpt lat="44.58735" lon="5.93036">
        <ele>1194.4</ele>
        <time>2012-02-08T14:38:07Z</time>
      </trkpt>
      <trkpt lat="44.58738" lon="5.92948">
        <ele>1202.1</ele>
        <time>2012-02-08T14:38:11Z</time>
      </trkpt>
      <trkpt lat="44.58622" lon="5.92852">
        <ele>1208.9</ele>
        <time>2012-02-08T14:38:18Z</time>
      </trkpt>
      <trkpt lat="44.58404" lon="5.92838">
        <ele>1211.2</ele>
        <time>2012-02-08T14:38:31Z</time>
      </trkpt>
      <trkpt lat="44.58349" lon="5.92771">
        <ele>1225.8</ele>
        <time>2012-02-08T14:38:35Z</time>
      </trkpt>
      <trkpt lat="44.58236" lon="5.92777">
        <ele>1216.7</ele>
        <time>2012-02-08T14:38:42Z</time>
      </trkpt>
      <trkpt lat="44.58198" lon="5.92713">
        <ele>1228.3</ele>
        <time>2012-02-08T14:38:45Z</time>
      </trkpt>
      <trkpt lat="44.58076" lon="5.92582">
        <ele>1244.4</ele>
        <time>2012-02-08T14:38:54Z</time>
      </trkpt>
      <trkpt lat="44.58002" lon="5.9255">
        <ele>1264.3</ele>
        <time>2012-02-08T14:38:58Z</time>
      </trkpt>
      <trkpt lat="44.57832" lon="5.92579">
        <ele>1269.5</ele>
        <time>2012-02-08T14:39:08Z</time>
      </trkpt>
      <trkpt lat="44.57673" lon="5.92529">
        <ele>1276.2</ele>
        <time>2012-02-08T14:39:17Z</time>
      </trkpt>
      <trkpt lat="44.57578" lon="5.92496">
        <ele>1284.1</ele>
        <time>2012-02-08T14:39:23Z</time>
      </trkpt>
      <trkpt lat="44.5746" lon="5.92489">
        <ele>1284</ele>
        <time>2012-02-08T14:39:30Z</time>
      </trkpt>
      <trkpt lat="44.5767" lon="5.924">
        <ele>1316</ele>
        <time>2012-02-08T14:39:42Z</time>
      </trkpt>
      <trkpt lat="44.57914" lon="5.92368">
        <ele>1339.9</ele>
        <time>2012-02-08T14:39:56Z</time>
      </trkpt>
      <trkpt lat="44.58073" lon="5.92195">
        <ele>1387.9</ele>
        <time>2012-02-08T14:40:08Z</time>
      </trkpt>
      <trkpt lat="44.58269" lon="5.92061">
        <ele>1403.2</ele>
        <time>2012-02-08T14:40:20Z</time>
      </trkpt>
      <trkpt lat="44.58125" lon="5.9207">
        <ele>1424.1</ele>
        <time>2012-02-08T14:40:28Z</time>
      </trkpt>
      <trkpt lat="44.58274" lon="5.9198">
        <ele>1434.8</ele>
        <time>2012-02-08T14:40:38Z</time>
      </trkpt>
      <trkpt lat="44.58465" lon="5.91974">
        <ele>1440.3</ele>
        <time>2012-02-08T14:40:49Z</time>
      </trkpt>
      <trkpt lat="44.58707" lon="5.92094">
        <ele>1449.3</ele>
        <time>2012-02-08T14:41:03Z</time>
      </trkpt>
      <trkpt lat="44.58754" lon="5.92067">
        <ele>1461.3</ele>
        <time>2012-02-08T14:41:06Z</time>
      </trkpt>
      <trkpt lat="44.58623" lon="5.91965">
        <ele>1467.3</ele>
        <time>2012-02-08T14:41:15Z</time>
      </trkpt>
      <trkpt lat="44.58487" lon="5.91895">
        <ele>1467.7</ele>
        <time>2012-02-08T14:41:23Z</time>
      </trkpt>
      <trkpt lat="44.58642" lon="5.91835">
        <ele>1504.3</ele>
        <time>2012-02-08T14:41:32Z</time>
      </trkpt>
      <trkpt lat="44.58944" lon="5.91862">
        <ele>1546.1</ele>
        <time>2012-02-08T14:41:50Z</time>
      </trkpt>
      <trkpt lat="44.59135" lon="5.91837">
        <ele>1591.7</ele>
        <time>2012-02-08T14:42:01Z</time>
      </trkpt>
      <trkpt lat="44.5974" lon="5.9218">
        <ele>1650</ele>
        <time>2012-02-08T14:42:38Z</time>
      </trkpt>
      <trkpt lat="44.59793" lon="5.9213">
        <ele>1664.5</ele>
        <time>2012-02-08T14:42:41Z</time>
      </trkpt>
      <trkpt lat="44.5991" lon="5.92016">
        <ele>1661.2</ele>
        <time>2012-02-08T14:42:50Z</time>
      </trkpt>
      <trkpt lat="44.59954" lon="5.91956">
        <ele>1654.9</ele>
        <time>2012-02-08T14:42:53Z</time>
      </trkpt>
      <trkpt lat="44.59963" lon="5.92028">
        <ele>1644.9</ele>
        <time>2012-02-08T14:42:56Z</time>
      </trkpt>
      <trkpt lat="44.60087" lon="5.91985">
        <ele>1608.2</ele>
        <time>2012-02-08T14:43:03Z</time>
      </trkpt>
      <trkpt lat="44.60204" lon="5.91972">
        <ele>1566.7</ele>
        <time>2012-02-08T14:43:10Z</time>
      </trkpt>
      <trkpt lat="44.60305" lon="5.91791">
        <ele>1546.1</ele>
        <time>2012-02-08T14:43:19Z</time>
      </trkpt>
      <trkpt lat="44.60326" lon="5.9142">
        <ele>1474.1</ele>
        <time>2012-02-08T14:43:35Z</time>
      </trkpt>
      <trkpt lat="44.60189" lon="5.9134">
        <ele>1460.6</ele>
        <time>2012-02-08T14:43:43Z</time>
      </trkpt>
      <trkpt lat="44.59802" lon="5.91115">
        <ele>1401.6</ele>
        <time>2012-02-08T14:44:07Z</time>
      </trkpt>
      <trkpt lat="44.59529" lon="5.91073">
        <ele>1384.1</ele>
        <time>2012-02-08T14:44:23Z</time>
      </trkpt>
      <trkpt lat="44.5974" lon="5.90907">
        <ele>1351.8</ele>
        <time>2012-02-08T14:44:37Z</time>
      </trkpt>
      <trkpt lat="44.60025" lon="5.90958">
        <ele>1325.5</ele>
        <time>2012-02-08T14:44:53Z</time>
      </trkpt>
      <trkpt lat="44.6021" lon="5.91037">
        <ele>1318</ele>
        <time>2012-02-08T14:45:04Z</time>
      </trkpt>
      <trkpt lat="44.6041" lon="5.91037">
        <ele>1304</ele>
        <time>2012-02-08T14:45:16Z</time>
      </trkpt>
      <trkpt lat="44.60341" lon="5.90878">
        <ele>1306.8</ele>
        <time>2012-02-08T14:45:23Z</time>
      </trkpt>
      <trkpt lat="44.60229" lon="5.90741">
        <ele>1296.7</ele>
        <time>2012-02-08T14:45:32Z</time>
      </trkpt>
      <trkpt lat="44.60037" lon="5.90403">
        <ele>1326.9</ele>
        <time>2012-02-08T14:45:49Z</time>
      </trkpt>
      <trkpt lat="44.5998" lon="5.90316">
        <ele>1309.8</ele>
        <time>2012-02-08T14:45:54Z</time>
      </trkpt>
      <trkpt lat="44.60043" lon="5.90308">
        <ele>1329.7</ele>
        <time>2012-02-08T14:45:58Z</time>
      </trkpt>
      <trkpt lat="44.60021" lon="5.90265">
        <ele>1317.5</ele>
        <time>2012-02-08T14:46:00Z</time>
      </trkpt>
      <trkpt lat="44.60107" lon="5.90191">
        <ele>1332.1</ele>
        <time>2012-02-08T14:46:06Z</time>
      </trkpt>
      <trkpt lat="44.60105" lon="5.89873">
        <ele>1361.8</ele>
        <time>2012-02-08T14:46:19Z</time>
      </trkpt>
      <trkpt lat="44.59895" lon="5.90102">
        <ele>1311.9</ele>
        <time>2012-02-08T14:46:34Z</time>
      </trkpt>
      <trkpt lat="44.5984" lon="5.8994">
        <ele>1325.9</ele>
        <time>2012-02-08T14:46:41Z</time>
      </trkpt>
      <trkpt lat="44.59778" lon="5.89819">
        <ele>1311.8</ele>
        <time>2012-02-08T14:46:47Z</time>
      </trkpt>
      <trkpt lat="44.59772" lon="5.8966">
        <ele>1309.1</ele>
        <time>2012-02-08T14:46:54Z</time>
      </trkpt>
      <trkpt lat="44.59824" lon="5.89513">
        <ele>1322</ele>
        <time>2012-02-08T14:47:00Z</time>
      </trkpt>
      <trkpt lat="44.59851" lon="5.89322">
        <ele>1340.2</ele>
        <time>2012-02-08T14:47:08Z</time>
      </trkpt>
      <trkpt lat="44.59698" lon="5.89246">
        <ele>1373.4</ele>
        <time>2012-02-08T14:47:17Z</time>
      </trkpt>
      <trkpt lat="44.59671" lon="5.89369">
        <ele>1356.9</ele>
        <time>2012-02-08T14:47:23Z</time>
      </trkpt>
      <trkpt lat="44.59598" lon="5.8949">
        <ele>1349</ele>
        <time>2012-02-08T14:47:29Z</time>
      </trkpt>
      <trkpt lat="44.59506" lon="5.89555">
        <ele>1327.9</ele>
        <time>2012-02-08T14:47:35Z</time>
      </trkpt>
      <trkpt lat="44.59418" lon="5.89533">
        <ele>1310.8</ele>
        <time>2012-02-08T14:47:40Z</time>
      </trkpt>
      <trkpt lat="44.59396" lon="5.89457">
        <ele>1340.4</ele>
        <time>2012-02-08T14:47:44Z</time>
      </trkpt>
      <trkpt lat="44.59316" lon="5.89443">
        <ele>1314.9</ele>
        <time>2012-02-08T14:47:48Z</time>
      </trkpt>
      <trkpt lat="44.59278" lon="5.89328">
        <ele>1340.1</ele>
        <time>2012-02-08T14:47:53Z</time>
      </trkpt>
      <trkpt lat="44.59154" lon="5.89283">
        <ele>1320.5</ele>
        <time>2012-02-08T14:48:01Z</time>
      </trkpt>
      <trkpt lat="44.59069" lon="5.89156">
        <ele>1354.1</ele>
        <time>2012-02-08T14:48:08Z</time>
      </trkpt>
      <trkpt lat="44.58934" lon="5.89164">
        <ele>1338.2</ele>
        <time>2012-02-08T14:48:15Z</time>
      </trkpt>
      <trkpt lat="44.58759" lon="5.89049">
        <ele>1329.2</ele>
        <time>2012-02-08T14:48:27Z</time>
      </trkpt>
      <trkpt lat="44.58625" lon="5.88928">
        <ele>1336.5</ele>
        <time>2012-02-08T14:48:36Z</time>
      </trkpt>
      <trkpt lat="44.58468" lon="5.88893">
        <ele>1326.8</ele>
        <time>2012-02-08T14:48:45Z</time>
      </trkpt>
      <trkpt lat="44.58352" lon="5.88885">
        <ele>1308</ele>
        <time>2012-02-08T14:48:51Z</time>
      </trkpt>
      <trkpt lat="44.58485" lon="5.8866">
        <ele>1292.1</ele>
        <time>2012-02-08T14:49:03Z</time>
      </trkpt>
      <trkpt lat="44.5861" lon="5.88584">
        <ele>1312.3</ele>
        <time>2012-02-08T14:49:11Z</time>
      </trkpt>
      <trkpt lat="44.58625" lon="5.88477">
        <ele>1309.7</ele>
        <time>2012-02-08T14:49:16Z</time>
      </trkpt>
      <trkpt lat="44.58628" lon="5.88393">
        <ele>1303.7</ele>
        <time>2012-02-08T14:49:19Z</time>
      </trkpt>
      <trkpt lat="44.58704" lon="5.8826">
        <ele>1301</ele>
        <time>2012-02-08T14:49:26Z</time>
      </trkpt>
      <trkpt lat="44.58843" lon="5.88119">
        <ele>1295.2</ele>
        <time>2012-02-08T14:49:36Z</time>
      </trkpt>
      <trkpt lat="44.59041" lon="5.87897">
        <ele>1293.7</ele>
        <time>2012-02-08T14:49:50Z</time>
      </trkpt>
      <trkpt lat="44.59227" lon="5.87767">
        <ele>1293.7</ele>
        <time>2012-02-08T14:50:02Z</time>
      </trkpt>
      <trkpt lat="44.59609" lon="5.87766">
        <ele>1317.8</ele>
        <time>2012-02-08T14:50:24Z</time>
      </trkpt>
      <trkpt lat="44.59716" lon="5.87877">
        <ele>1337.6</ele>
        <time>2012-02-08T14:50:32Z</time>
      </trkpt>
      <trkpt lat="44.59845" lon="5.88136">
        <ele>1364.9</ele>
        <time>2012-02-08T14:50:44Z</time>
      </trkpt>
      <trkpt lat="44.59952" lon="5.88143">
        <ele>1345.6</ele>
        <time>2012-02-08T14:50:51Z</time>
      </trkpt>
      <trkpt lat="44.59896" lon="5.88018">
        <ele>1335.2</ele>
        <time>2012-02-08T14:50:57Z</time>
      </trkpt>
      <trkpt lat="44.59902" lon="5.8786">
        <ele>1329.6</ele>
        <time>2012-02-08T14:51:03Z</time>
      </trkpt>
      <trkpt lat="44.59863" lon="5.87582">
        <ele>1331.2</ele>
        <time>2012-02-08T14:51:15Z</time>
      </trkpt>
      <trkpt lat="44.59875" lon="5.87382">
        <ele>1340.1</ele>
        <time>2012-02-08T14:51:23Z</time>
      </trkpt>
      <trkpt lat="44.59838" lon="5.87225">
        <ele>1323.4</ele>
        <time>2012-02-08T14:51:29Z</time>
      </trkpt>
      <trkpt lat="44.59942" lon="5.87065">
        <ele>1316.3</ele>
        <time>2012-02-08T14:51:38Z</time>
      </trkpt>
      <trkpt lat="44.59894" lon="5.86882">
        <ele>1290.2</ele>
        <time>2012-02-08T14:51:46Z</time>
      </trkpt>
      <trkpt lat="44.59894" lon="5.86882">
        <ele>1290.2</ele>
        <time>2012-02-08T14:51:46Z</time>
      </trkpt>
      <trkpt lat="44.59896" lon="5.8682">
        <ele>1283.1</ele>
        <time>2012-02-08T14:51:49Z</time>
      </trkpt>
      <trkpt lat="44.59841" lon="5.8667">
        <ele>1282.9</ele>
        <time>2012-02-08T14:51:56Z</time>
      </trkpt>
      <trkpt lat="44.59948" lon="5.86693">
        <ele>1277.3</ele>
        <time>2012-02-08T14:52:02Z</time>
      </trkpt>
      <trkpt lat="44.60076" lon="5.86538">
        <ele>1257.4</ele>
        <time>2012-02-08T14:52:11Z</time>
      </trkpt>
      <trkpt lat="44.60144" lon="5.86739">
        <ele>1235</ele>
        <time>2012-02-08T14:52:20Z</time>
      </trkpt>
      <trkpt lat="44.60207" lon="5.86634">
        <ele>1214.7</ele>
        <time>2012-02-08T14:52:26Z</time>
      </trkpt>
      <trkpt lat="44.6036" lon="5.86602">
        <ele>1194.9</ele>
        <time>2012-02-08T14:52:35Z</time>
      </trkpt>
      <trkpt lat="44.60454" lon="5.8665">
        <ele>1211.8</ele>
        <time>2012-02-08T14:52:41Z</time>
      </trkpt>
      <trkpt lat="44.60446" lon="5.86528">
        <ele>1195.1</ele>
        <time>2012-02-08T14:52:46Z</time>
      </trkpt>
      <trkpt lat="44.60594" lon="5.86467">
        <ele>1200.6</ele>
        <time>2012-02-08T14:52:54Z</time>
      </trkpt>
      <trkpt lat="44.6073" lon="5.86513">
        <ele>1220.3</ele>
        <time>2012-02-08T14:53:02Z</time>
      </trkpt>
      <trkpt lat="44.6069" lon="5.86377">
        <ele>1194.7</ele>
        <time>2012-02-08T14:53:08Z</time>
      </trkpt>
      <trkpt lat="44.60805" lon="5.86209">
        <ele>1204.4</ele>
        <time>2012-02-08T14:53:18Z</time>
      </trkpt>
      <trkpt lat="44.60939" lon="5.86246">
        <ele>1201</ele>
        <time>2012-02-08T14:53:26Z</time>
      </trkpt>
      <trkpt lat="44.61026" lon="5.86323">
        <ele>1202</ele>
        <time>2012-02-08T14:53:32Z</time>
      </trkpt>
      <trkpt lat="44.61114" lon="5.86449">
        <ele>1205.9</ele>
        <time>2012-02-08T14:53:39Z</time>
      </trkpt>
      <trkpt lat="44.61281" lon="5.86544">
        <ele>1180.8</ele>
        <time>2012-02-08T14:53:49Z</time>
      </trkpt>
      <trkpt lat="44.61376" lon="5.86483">
        <ele>1157.4</ele>
        <time>2012-02-08T14:53:55Z</time>
      </trkpt>
      <trkpt lat="44.61414" lon="5.86506">
        <ele>1162.8</ele>
        <time>2012-02-08T14:53:57Z</time>
      </trkpt>
      <trkpt lat="44.61433" lon="5.86457">
        <ele>1157</ele>
        <time>2012-02-08T14:54:00Z</time>
      </trkpt>
      <trkpt lat="44.61484" lon="5.86544">
        <ele>1176</ele>
        <time>2012-02-08T14:54:04Z</time>
      </trkpt>
      <trkpt lat="44.61542" lon="5.86414">
        <ele>1183.3</ele>
        <time>2012-02-08T14:54:10Z</time>
      </trkpt>
      <trkpt lat="44.61631" lon="5.86419">
        <ele>1219.9</ele>
        <time>2012-02-08T14:54:16Z</time>
      </trkpt>
      <trkpt lat="44.61629" lon="5.86306">
        <ele>1204.5</ele>
        <time>2012-02-08T14:54:20Z</time>
      </trkpt>
      <trkpt lat="44.61812" lon="5.86101">
        <ele>1209.3</ele>
        <time>2012-02-08T14:54:34Z</time>
      </trkpt>
      <trkpt lat="44.619" lon="5.8596">
        <ele>1184.6</ele>
        <time>2012-02-08T14:54:41Z</time>
      </trkpt>
      <trkpt lat="44.6205" lon="5.85936">
        <ele>1204.2</ele>
        <time>2012-02-08T14:54:50Z</time>
      </trkpt>
      <trkpt lat="44.6213" lon="5.85962">
        <ele>1201</ele>
        <time>2012-02-08T14:54:55Z</time>
      </trkpt>
      <trkpt lat="44.62251" lon="5.85915">
        <ele>1185.8</ele>
        <time>2012-02-08T14:55:02Z</time>
      </trkpt>
      <trkpt lat="44.62327" lon="5.85774">
        <ele>1168.4</ele>
        <time>2012-02-08T14:55:09Z</time>
      </trkpt>
      <trkpt lat="44.6244" lon="5.85697">
        <ele>1171.8</ele>
        <time>2012-02-08T14:55:16Z</time>
      </trkpt>
      <trkpt lat="44.6248" lon="5.8565">
        <ele>1166.3</ele>
        <time>2012-02-08T14:55:19Z</time>
      </trkpt>
      <trkpt lat="44.62577" lon="5.8571">
        <ele>1195.9</ele>
        <time>2012-02-08T14:55:25Z</time>
      </trkpt>
      <trkpt lat="44.62675" lon="5.85616">
        <ele>1182</ele>
        <time>2012-02-08T14:55:32Z</time>
      </trkpt>
      <trkpt lat="44.62719" lon="5.85539">
        <ele>1171.1</ele>
        <time>2012-02-08T14:55:36Z</time>
      </trkpt>
      <trkpt lat="44.62836" lon="5.85526">
        <ele>1188.1</ele>
        <time>2012-02-08T14:55:43Z</time>
      </trkpt>
      <trkpt lat="44.62933" lon="5.8539">
        <ele>1174.7</ele>
        <time>2012-02-08T14:55:51Z</time>
      </trkpt>
      <trkpt lat="44.62909" lon="5.85501">
        <ele>1200.4</ele>
        <time>2012-02-08T14:55:55Z</time>
      </trkpt>
      <trkpt lat="44.63013" lon="5.85499">
        <ele>1223.3</ele>
        <time>2012-02-08T14:56:01Z</time>
      </trkpt>
      <trkpt lat="44.63056" lon="5.85452">
        <ele>1220</ele>
        <time>2012-02-08T14:56:04Z</time>
      </trkpt>
      <trkpt lat="44.63153" lon="5.85425">
        <ele>1233</ele>
        <time>2012-02-08T14:56:10Z</time>
      </trkpt>
      <trkpt lat="44.63214" lon="5.85374">
        <ele>1230.2</ele>
        <time>2012-02-08T14:56:14Z</time>
      </trkpt>
      <trkpt lat="44.63314" lon="5.85422">
        <ele>1255.5</ele>
        <time>2012-02-08T14:56:20Z</time>
      </trkpt>
      <trkpt lat="44.63481" lon="5.85249">
        <ele>1229.5</ele>
        <time>2012-02-08T14:56:32Z</time>
      </trkpt>
      <trkpt lat="44.6357" lon="5.85271">
        <ele>1241.9</ele>
        <time>2012-02-08T14:56:37Z</time>
      </trkpt>
      <trkpt lat="44.63667" lon="5.85206">
        <ele>1224.4</ele>
        <time>2012-02-08T14:56:43Z</time>
      </trkpt>
      <trkpt lat="44.6379" lon="5.85101">
        <ele>1222.8</ele>
        <time>2012-02-08T14:56:52Z</time>
      </trkpt>
      <trkpt lat="44.63785" lon="5.84963">
        <ele>1202.5</ele>
        <time>2012-02-08T14:56:57Z</time>
      </trkpt>
      <trkpt lat="44.63854" lon="5.84879">
        <ele>1211.6</ele>
        <time>2012-02-08T14:57:02Z</time>
      </trkpt>
      <trkpt lat="44.63843" lon="5.84737">
        <ele>1216.8</ele>
        <time>2012-02-08T14:57:08Z</time>
      </trkpt>
      <trkpt lat="44.63941" lon="5.84684">
        <ele>1216</ele>
        <time>2012-02-08T14:57:14Z</time>
      </trkpt>
      <trkpt lat="44.63989" lon="5.84587">
        <ele>1229.2</ele>
        <time>2012-02-08T14:57:19Z</time>
      </trkpt>
      <trkpt lat="44.63932" lon="5.84316">
        <ele>1235.6</ele>
        <time>2012-02-08T14:57:30Z</time>
      </trkpt>
      <trkpt lat="44.63914" lon="5.84218">
        <ele>1235.8</ele>
        <time>2012-02-08T14:57:35Z</time>
      </trkpt>
      <trkpt lat="44.63872" lon="5.84128">
        <ele>1230.5</ele>
        <time>2012-02-08T14:57:39Z</time>
      </trkpt>
      <trkpt lat="44.63956" lon="5.83745">
        <ele>1241.4</ele>
        <time>2012-02-08T14:57:55Z</time>
      </trkpt>
      <trkpt lat="44.63917" lon="5.83663">
        <ele>1265.9</ele>
        <time>2012-02-08T14:57:59Z</time>
      </trkpt>
      <trkpt lat="44.63884" lon="5.83552">
        <ele>1268</ele>
        <time>2012-02-08T14:58:04Z</time>
      </trkpt>
      <trkpt lat="44.63693" lon="5.83385">
        <ele>1304.9</ele>
        <time>2012-02-08T14:58:17Z</time>
      </trkpt>
      <trkpt lat="44.63788" lon="5.83667">
        <ele>1323</ele>
        <time>2012-02-08T14:58:30Z</time>
      </trkpt>
      <trkpt lat="44.6372" lon="5.83939">
        <ele>1351</ele>
        <time>2012-02-08T14:58:41Z</time>
      </trkpt>
      <trkpt lat="44.63708" lon="5.83742">
        <ele>1386.3</ele>
        <time>2012-02-08T14:58:49Z</time>
      </trkpt>
      <trkpt lat="44.636" lon="5.83568">
        <ele>1395.1</ele>
        <time>2012-02-08T14:58:59Z</time>
      </trkpt>
      <trkpt lat="44.63437" lon="5.83261">
        <ele>1423</ele>
        <time>2012-02-08T14:59:14Z</time>
      </trkpt>
      <trkpt lat="44.63519" lon="5.83688">
        <ele>1460.5</ele>
        <time>2012-02-08T14:59:32Z</time>
      </trkpt>
      <trkpt lat="44.63303" lon="5.83704">
        <ele>1494.3</ele>
        <time>2012-02-08T14:59:45Z</time>
      </trkpt>
      <trkpt lat="44.63259" lon="5.83777">
        <ele>1477.7</ele>
        <time>2012-02-08T14:59:49Z</time>
      </trkpt>
      <trkpt lat="44.63007" lon="5.83828">
        <ele>1502.7</ele>
        <time>2012-02-08T15:00:03Z</time>
      </trkpt>
      <trkpt lat="44.62889" lon="5.83879">
        <ele>1505.8</ele>
        <time>2012-02-08T15:00:10Z</time>
      </trkpt>
      <trkpt lat="44.62863" lon="5.83961">
        <ele>1496.4</ele>
        <time>2012-02-08T15:00:14Z</time>
      </trkpt>
      <trkpt lat="44.62865" lon="5.84157">
        <ele>1482.7</ele>
        <time>2012-02-08T15:00:22Z</time>
      </trkpt>
      <trkpt lat="44.62741" lon="5.84116">
        <ele>1486.3</ele>
        <time>2012-02-08T15:00:29Z</time>
      </trkpt>
      <trkpt lat="44.62597" lon="5.84145">
        <ele>1498</ele>
        <time>2012-02-08T15:00:38Z</time>
      </trkpt>
      <trkpt lat="44.62416" lon="5.84221">
        <ele>1484.7</ele>
        <time>2012-02-08T15:00:48Z</time>
      </trkpt>
      <trkpt lat="44.62327" lon="5.84187">
        <ele>1480.8</ele>
        <time>2012-02-08T15:00:54Z</time>
      </trkpt>
      <trkpt lat="44.62286" lon="5.84071">
        <ele>1462.6</ele>
        <time>2012-02-08T15:00:59Z</time>
      </trkpt>
      <trkpt lat="44.62248" lon="5.83856">
        <ele>1475.3</ele>
        <time>2012-02-08T15:01:08Z</time>
      </trkpt>
      <trkpt lat="44.62191" lon="5.83689">
        <ele>1463.6</ele>
        <time>2012-02-08T15:01:15Z</time>
      </trkpt>
      <trkpt lat="44.62428" lon="5.83441">
        <ele>1510.9</ele>
        <time>2012-02-08T15:01:32Z</time>
      </trkpt>
      <trkpt lat="44.62301" lon="5.8332">
        <ele>1500.5</ele>
        <time>2012-02-08T15:01:41Z</time>
      </trkpt>
      <trkpt lat="44.62272" lon="5.83214">
        <ele>1512.4</ele>
        <time>2012-02-08T15:01:46Z</time>
      </trkpt>
      <trkpt lat="44.62215" lon="5.8311">
        <ele>1491.7</ele>
        <time>2012-02-08T15:01:51Z</time>
      </trkpt>
      <trkpt lat="44.62243" lon="5.82999">
        <ele>1485.4</ele>
        <time>2012-02-08T15:01:56Z</time>
      </trkpt>
      <trkpt lat="44.62337" lon="5.82829">
        <ele>1498.5</ele>
        <time>2012-02-08T15:02:05Z</time>
      </trkpt>
      <trkpt lat="44.62456" lon="5.82757">
        <ele>1542.2</ele>
        <time>2012-02-08T15:02:12Z</time>
      </trkpt>
      <trkpt lat="44.62297" lon="5.82597">
        <ele>1548</ele>
        <time>2012-02-08T15:02:23Z</time>
      </trkpt>
      <trkpt lat="44.62199" lon="5.82382">
        <ele>1532.3</ele>
        <time>2012-02-08T15:02:34Z</time>
      </trkpt>
      <trkpt lat="44.62164" lon="5.82183">
        <ele>1573.1</ele>
        <time>2012-02-08T15:02:42Z</time>
      </trkpt>
      <trkpt lat="44.61803" lon="5.8219">
        <ele>1592</ele>
        <time>2012-02-08T15:03:03Z</time>
      </trkpt>
      <trkpt lat="44.61827" lon="5.8179">
        <ele>1619.2</ele>
        <time>2012-02-08T15:03:19Z</time>
      </trkpt>
      <trkpt lat="44.61546" lon="5.8161">
        <ele>1624.9</ele>
        <time>2012-02-08T15:03:37Z</time>
      </trkpt>
      <trkpt lat="44.61418" lon="5.81611">
        <ele>1588.3</ele>
        <time>2012-02-08T15:03:44Z</time>
      </trkpt>
      <trkpt lat="44.61447" lon="5.81458">
        <ele>1616.1</ele>
        <time>2012-02-08T15:03:50Z</time>
      </trkpt>
      <trkpt lat="44.61408" lon="5.81259">
        <ele>1596.3</ele>
        <time>2012-02-08T15:03:59Z</time>
      </trkpt>
      <trkpt lat="44.61382" lon="5.80961">
        <ele>1598.4</ele>
        <time>2012-02-08T15:04:11Z</time>
      </trkpt>
      <trkpt lat="44.61122" lon="5.80786">
        <ele>1554.5</ele>
        <time>2012-02-08T15:04:28Z</time>
      </trkpt>
      <trkpt lat="44.60898" lon="5.80588">
        <ele>1530.3</ele>
        <time>2012-02-08T15:04:43Z</time>
      </trkpt>
      <trkpt lat="44.60749" lon="5.80512">
        <ele>1522.3</ele>
        <time>2012-02-08T15:04:52Z</time>
      </trkpt>
      <trkpt lat="44.60861" lon="5.80369">
        <ele>1473.2</ele>
        <time>2012-02-08T15:05:00Z</time>
      </trkpt>
      <trkpt lat="44.6108" lon="5.80491">
        <ele>1479.1</ele>
        <time>2012-02-08T15:05:14Z</time>
      </trkpt>
      <trkpt lat="44.61101" lon="5.80308">
        <ele>1441.4</ele>
        <time>2012-02-08T15:05:22Z</time>
      </trkpt>
      <trkpt lat="44.61167" lon="5.80304">
        <ele>1452.2</ele>
        <time>2012-02-08T15:05:25Z</time>
      </trkpt>
      <trkpt lat="44.61324" lon="5.80544">
        <ele>1490.3</ele>
        <time>2012-02-08T15:05:39Z</time>
      </trkpt>
      <trkpt lat="44.613" lon="5.80245">
        <ele>1424.1</ele>
        <time>2012-02-08T15:05:51Z</time>
      </trkpt>
      <trkpt lat="44.61412" lon="5.80098">
        <ele>1383.2</ele>
        <time>2012-02-08T15:06:00Z</time>
      </trkpt>
      <trkpt lat="44.6153" lon="5.80255">
        <ele>1404.6</ele>
        <time>2012-02-08T15:06:09Z</time>
      </trkpt>
      <trkpt lat="44.61672" lon="5.80298">
        <ele>1390.2</ele>
        <time>2012-02-08T15:06:17Z</time>
      </trkpt>
      <trkpt lat="44.6178" lon="5.80275">
        <ele>1392.9</ele>
        <time>2012-02-08T15:06:23Z</time>
      </trkpt>
      <trkpt lat="44.61649" lon="5.80158">
        <ele>1385</ele>
        <time>2012-02-08T15:06:32Z</time>
      </trkpt>
      <trkpt lat="44.61597" lon="5.79909">
        <ele>1376.9</ele>
        <time>2012-02-08T15:06:43Z</time>
      </trkpt>
      <trkpt lat="44.61546" lon="5.79734">
        <ele>1361.8</ele>
        <time>2012-02-08T15:06:50Z</time>
      </trkpt>
      <trkpt lat="44.61743" lon="5.79634">
        <ele>1391.7</ele>
        <time>2012-02-08T15:07:02Z</time>
      </trkpt>
      <trkpt lat="44.61817" lon="5.79471">
        <ele>1397.3</ele>
        <time>2012-02-08T15:07:10Z</time>
      </trkpt>
      <trkpt lat="44.61846" lon="5.79607">
        <ele>1419</ele>
        <time>2012-02-08T15:07:16Z</time>
      </trkpt>
      <trkpt lat="44.61906" lon="5.79573">
        <ele>1434.7</ele>
        <time>2012-02-08T15:07:20Z</time>
      </trkpt>
      <trkpt lat="44.61884" lon="5.79442">
        <ele>1421.5</ele>
        <time>2012-02-08T15:07:25Z</time>
      </trkpt>
      <trkpt lat="44.61988" lon="5.79448">
        <ele>1450.1</ele>
        <time>2012-02-08T15:07:31Z</time>
      </trkpt>
      <trkpt lat="44.62071" lon="5.79366">
        <ele>1474.3</ele>
        <time>2012-02-08T15:07:37Z</time>
      </trkpt>
      <trkpt lat="44.61966" lon="5.79213">
        <ele>1484.2</ele>
        <time>2012-02-08T15:07:46Z</time>
      </trkpt>
      <trkpt lat="44.61924" lon="5.79118">
        <ele>1501</ele>
        <time>2012-02-08T15:07:50Z</time>
      </trkpt>
      <trkpt lat="44.61815" lon="5.79053">
        <ele>1458</ele>
        <time>2012-02-08T15:07:57Z</time>
      </trkpt>
      <trkpt lat="44.61825" lon="5.78924">
        <ele>1461.1</ele>
        <time>2012-02-08T15:08:02Z</time>
      </trkpt>
      <trkpt lat="44.61985" lon="5.7878">
        <ele>1508.3</ele>
        <time>2012-02-08T15:08:13Z</time>
      </trkpt>
      <trkpt lat="44.62212" lon="5.78689">
        <ele>1580.7</ele>
        <time>2012-02-08T15:08:27Z</time>
      </trkpt>
      <trkpt lat="44.62256" lon="5.78625">
        <ele>1593.2</ele>
        <time>2012-02-08T15:08:30Z</time>
      </trkpt>
      <trkpt lat="44.62237" lon="5.78465">
        <ele>1626.5</ele>
        <time>2012-02-08T15:08:37Z</time>
      </trkpt>
      <trkpt lat="44.62144" lon="5.78476">
        <ele>1598.1</ele>
        <time>2012-02-08T15:08:42Z</time>
      </trkpt>
      <trkpt lat="44.62118" lon="5.78349">
        <ele>1619.6</ele>
        <time>2012-02-08T15:08:48Z</time>
      </trkpt>
      <trkpt lat="44.61982" lon="5.78119">
        <ele>1608.4</ele>
        <time>2012-02-08T15:09:00Z</time>
      </trkpt>
      <trkpt lat="44.62033" lon="5.78026">
        <ele>1630.2</ele>
        <time>2012-02-08T15:09:04Z</time>
      </trkpt>
      <trkpt lat="44.62059" lon="5.77669">
        <ele>1672.6</ele>
        <time>2012-02-08T15:09:19Z</time>
      </trkpt>
      <trkpt lat="44.62076" lon="5.77515">
        <ele>1704.4</ele>
        <time>2012-02-08T15:09:25Z</time>
      </trkpt>
      <trkpt lat="44.62162" lon="5.7732">
        <ele>1685.8</ele>
        <time>2012-02-08T15:09:35Z</time>
      </trkpt>
      <trkpt lat="44.62101" lon="5.77069">
        <ele>1669</ele>
        <time>2012-02-08T15:09:46Z</time>
      </trkpt>
      <trkpt lat="44.62214" lon="5.76817">
        <ele>1622.9</ele>
        <time>2012-02-08T15:09:58Z</time>
      </trkpt>
      <trkpt lat="44.62434" lon="5.76551">
        <ele>1540</ele>
        <time>2012-02-08T15:10:14Z</time>
      </trkpt>
      <trkpt lat="44.62572" lon="5.76325">
        <ele>1468.2</ele>
        <time>2012-02-08T15:10:26Z</time>
      </trkpt>
      <trkpt lat="44.62607" lon="5.76444">
        <ele>1469.4</ele>
        <time>2012-02-08T15:10:32Z</time>
      </trkpt>
      <trkpt lat="44.62687" lon="5.76478">
        <ele>1440.3</ele>
        <time>2012-02-08T15:10:36Z</time>
      </trkpt>
      <trkpt lat="44.62735" lon="5.76381">
        <ele>1417.4</ele>
        <time>2012-02-08T15:10:41Z</time>
      </trkpt>
      <trkpt lat="44.62767" lon="5.76412">
        <ele>1405.3</ele>
        <time>2012-02-08T15:10:43Z</time>
      </trkpt>
      <trkpt lat="44.62846" lon="5.76434">
        <ele>1382.3</ele>
        <time>2012-02-08T15:10:48Z</time>
      </trkpt>
      <trkpt lat="44.62868" lon="5.76218">
        <ele>1355.2</ele>
        <time>2012-02-08T15:10:57Z</time>
      </trkpt>
      <trkpt lat="44.62942" lon="5.76235">
        <ele>1344.7</ele>
        <time>2012-02-08T15:11:01Z</time>
      </trkpt>
      <trkpt lat="44.62977" lon="5.76183">
        <ele>1335.6</ele>
        <time>2012-02-08T15:11:04Z</time>
      </trkpt>
      <trkpt lat="44.62938" lon="5.76097">
        <ele>1348.4</ele>
        <time>2012-02-08T15:11:08Z</time>
      </trkpt>
      <trkpt lat="44.63026" lon="5.7614">
        <ele>1319.1</ele>
        <time>2012-02-08T15:11:14Z</time>
      </trkpt>
      <trkpt lat="44.63054" lon="5.76004">
        <ele>1307.2</ele>
        <time>2012-02-08T15:11:19Z</time>
      </trkpt>
      <trkpt lat="44.63112" lon="5.76045">
        <ele>1296.6</ele>
        <time>2012-02-08T15:11:23Z</time>
      </trkpt>
      <trkpt lat="44.63197" lon="5.75925">
        <ele>1294.5</ele>
        <time>2012-02-08T15:11:30Z</time>
      </trkpt>
      <trkpt lat="44.63347" lon="5.75595">
        <ele>1311.3</ele>
        <time>2012-02-08T15:11:46Z</time>
      </trkpt>
      <trkpt lat="44.63422" lon="5.75408">
        <ele>1320.5</ele>
        <time>2012-02-08T15:11:55Z</time>
      </trkpt>
      <trkpt lat="44.63499" lon="5.75116">
        <ele>1313.6</ele>
        <time>2012-02-08T15:12:07Z</time>
      </trkpt>
      <trkpt lat="44.63687" lon="5.74939">
        <ele>1376</ele>
        <time>2012-02-08T15:12:20Z</time>
      </trkpt>
      <trkpt lat="44.637" lon="5.74986">
        <ele>1376.4</ele>
        <time>2012-02-08T15:12:22Z</time>
      </trkpt>
      <trkpt lat="44.63824" lon="5.74855">
        <ele>1352.7</ele>
        <time>2012-02-08T15:12:31Z</time>
      </trkpt>
      <trkpt lat="44.64011" lon="5.74875">
        <ele>1319.2</ele>
        <time>2012-02-08T15:12:42Z</time>
      </trkpt>
      <trkpt lat="44.64168" lon="5.74738">
        <ele>1294.7</ele>
        <time>2012-02-08T15:12:53Z</time>
      </trkpt>
      <trkpt lat="44.64262" lon="5.7469">
        <ele>1291.8</ele>
        <time>2012-02-08T15:12:58Z</time>
      </trkpt>
      <trkpt lat="44.64395" lon="5.74343">
        <ele>1280.8</ele>
        <time>2012-02-08T15:13:14Z</time>
      </trkpt>
      <trkpt lat="44.64565" lon="5.74148">
        <ele>1210.7</ele>
        <time>2012-02-08T15:13:27Z</time>
      </trkpt>
      <trkpt lat="44.64735" lon="5.7397">
        <ele>1165.2</ele>
        <time>2012-02-08T15:13:39Z</time>
      </trkpt>
      <trkpt lat="44.64888" lon="5.73842">
        <ele>1133.8</ele>
        <time>2012-02-08T15:13:49Z</time>
      </trkpt>
      <trkpt lat="44.65003" lon="5.73585">
        <ele>1145.2</ele>
        <time>2012-02-08T15:14:01Z</time>
      </trkpt>
      <trkpt lat="44.6508" lon="5.73322">
        <ele>1101.3</ele>
        <time>2012-02-08T15:14:13Z</time>
      </trkpt>
      <trkpt lat="44.65134" lon="5.73041">
        <ele>1070.7</ele>
        <time>2012-02-08T15:14:25Z</time>
      </trkpt>
      <trkpt lat="44.65247" lon="5.72747">
        <ele>1061.8</ele>
        <time>2012-02-08T15:14:38Z</time>
      </trkpt>
      <trkpt lat="44.65397" lon="5.72614">
        <ele>1076.7</ele>
        <time>2012-02-08T15:14:49Z</time>
      </trkpt>
      <trkpt lat="44.65397" lon="5.72434">
        <ele>1071.6</ele>
        <time>2012-02-08T15:14:56Z</time>
      </trkpt>
      <trkpt lat="44.65594" lon="5.72241">
        <ele>1051.4</ele>
        <time>2012-02-08T15:15:10Z</time>
      </trkpt>
      <trkpt lat="44.65808" lon="5.72187">
        <ele>1044.4</ele>
        <time>2012-02-08T15:15:22Z</time>
      </trkpt>
      <trkpt lat="44.66033" lon="5.72021">
        <ele>1032.3</ele>
        <time>2012-02-08T15:15:37Z</time>
      </trkpt>
      <trkpt lat="44.6609" lon="5.71832">
        <ele>1030.5</ele>
        <time>2012-02-08T15:15:45Z</time>
      </trkpt>
      <trkpt lat="44.6606" lon="5.7155">
        <ele>1025.3</ele>
        <time>2012-02-08T15:15:57Z</time>
      </trkpt>
      <trkpt lat="44.66174" lon="5.71432">
        <ele>1023.7</ele>
        <time>2012-02-08T15:16:05Z</time>
      </trkpt>
      <trkpt lat="44.66263" lon="5.71061">
        <ele>1021.1</ele>
        <time>2012-02-08T15:16:21Z</time>
      </trkpt>
      <trkpt lat="44.66471" lon="5.70689">
        <ele>1036.6</ele>
        <time>2012-02-08T15:16:40Z</time>
      </trkpt>
      <trkpt lat="44.66595" lon="5.70558">
        <ele>1039.7</ele>
        <time>2012-02-08T15:16:49Z</time>
      </trkpt>
    </trkseg>
  </trk>
</gpx>